sensor_id;sensor_type;location;lat;lon;timestamp;P1;durP1;ratioP1;P2;durP2;ratioP2
79454;SDS011;68900;52.134;5.420;2023-11-19T00:00:30;12.27;;;3.15;;
79454;SDS011;68900;52.134;5.420;2023-11-19T00:02:57;10.75;;;3.10;;
79454;SDS011;68900;52.134;5.420;2023-11-19T00:05:24;15.95;;;3.30;;
79454;SDS011;68900;52.134;5.420;2023-11-19T00:07:50;13.18;;;3.05;;
79454;SDS011;68900;52.134;5.420;2023-11-19T00:10:17;14.80;;;3.15;;
79454;SDS011;68900;52.134;5.420;2023-11-19T00:12:47;11.75;;;3.05;;
79454;SDS011;68900;52.134;5.420;2023-11-19T00:15:15;8.43;;;2.28;;
79454;SDS011;68900;52.134;5.420;2023-11-19T00:17:45;14.30;;;2.60;;
79454;SDS011;68900;52.134;5.420;2023-11-19T00:20:14;12.45;;;2.65;;
79454;SDS011;68900;52.134;5.420;2023-11-19T00:23:13;11.10;;;2.15;;
79454;SDS011;68900;52.134;5.420;2023-11-19T00:25:39;10.00;;;2.58;;
79454;SDS011;68900;52.134;5.420;2023-11-19T00:28:06;9.77;;;2.35;;
79454;SDS011;68900;52.134;5.420;2023-11-19T00:30:32;12.27;;;2.53;;
79454;SDS011;68900;52.134;5.420;2023-11-19T00:32:59;11.63;;;2.25;;
79454;SDS011;68900;52.134;5.420;2023-11-19T00:35:25;9.27;;;2.03;;
79454;SDS011;68900;52.134;5.420;2023-11-19T00:37:52;14.63;;;2.50;;
79454;SDS011;68900;52.134;5.420;2023-11-19T00:40:20;15.43;;;2.15;;
79454;SDS011;68900;52.134;5.420;2023-11-19T00:42:49;12.95;;;2.40;;
79454;SDS011;68900;52.134;5.420;2023-11-19T00:45:16;13.57;;;2.65;;
79454;SDS011;68900;52.134;5.420;2023-11-19T00:47:42;12.68;;;2.33;;
79454;SDS011;68900;52.134;5.420;2023-11-19T00:50:09;12.70;;;2.22;;
79454;SDS011;68900;52.134;5.420;2023-11-19T00:52:36;11.15;;;2.65;;
79454;SDS011;68900;52.134;5.420;2023-11-19T00:55:04;15.90;;;2.38;;
79454;SDS011;68900;52.134;5.420;2023-11-19T00:57:31;13.20;;;2.30;;
79454;SDS011;68900;52.134;5.420;2023-11-19T00:59:59;14.85;;;2.67;;
79454;SDS011;68900;52.134;5.420;2023-11-19T01:02:25;17.92;;;2.55;;
79454;SDS011;68900;52.134;5.420;2023-11-19T01:04:52;14.70;;;2.05;;
79454;SDS011;68900;52.134;5.420;2023-11-19T01:07:18;19.35;;;2.83;;
79454;SDS011;68900;52.134;5.420;2023-11-19T01:09:45;13.25;;;2.20;;
79454;SDS011;68900;52.134;5.420;2023-11-19T01:12:11;15.57;;;2.55;;
79454;SDS011;68900;52.134;5.420;2023-11-19T01:14:39;14.70;;;2.55;;
79454;SDS011;68900;52.134;5.420;2023-11-19T01:17:05;13.68;;;2.35;;
79454;SDS011;68900;52.134;5.420;2023-11-19T01:19:32;15.10;;;2.60;;
79454;SDS011;68900;52.134;5.420;2023-11-19T01:21:59;20.30;;;2.70;;
79454;SDS011;68900;52.134;5.420;2023-11-19T01:24:25;15.93;;;2.30;;
79454;SDS011;68900;52.134;5.420;2023-11-19T01:26:54;20.10;;;2.63;;
79454;SDS011;68900;52.134;5.420;2023-11-19T01:29:24;20.05;;;2.95;;
79454;SDS011;68900;52.134;5.420;2023-11-19T01:31:50;18.38;;;3.33;;
79454;SDS011;68900;52.134;5.420;2023-11-19T01:34:22;18.02;;;2.30;;
79454;SDS011;68900;52.134;5.420;2023-11-19T01:36:49;18.60;;;2.35;;
79454;SDS011;68900;52.134;5.420;2023-11-19T01:39:15;20.65;;;2.55;;
79454;SDS011;68900;52.134;5.420;2023-11-19T01:41:45;21.80;;;2.85;;
79454;SDS011;68900;52.134;5.420;2023-11-19T01:44:11;18.65;;;2.35;;
79454;SDS011;68900;52.134;5.420;2023-11-19T01:46:41;15.18;;;2.85;;
79454;SDS011;68900;52.134;5.420;2023-11-19T01:49:09;21.17;;;2.70;;
79454;SDS011;68900;52.134;5.420;2023-11-19T01:51:38;20.00;;;2.65;;
79454;SDS011;68900;52.134;5.420;2023-11-19T01:54:06;21.73;;;2.90;;
79454;SDS011;68900;52.134;5.420;2023-11-19T01:56:33;22.50;;;2.47;;
79454;SDS011;68900;52.134;5.420;2023-11-19T01:59:01;21.83;;;3.05;;
79454;SDS011;68900;52.134;5.420;2023-11-19T02:01:28;20.73;;;2.88;;
79454;SDS011;68900;52.134;5.420;2023-11-19T02:03:56;20.05;;;2.78;;
79454;SDS011;68900;52.134;5.420;2023-11-19T02:06:24;18.70;;;2.33;;
79454;SDS011;68900;52.134;5.420;2023-11-19T02:08:52;19.05;;;2.88;;
79454;SDS011;68900;52.134;5.420;2023-11-19T02:11:19;20.85;;;3.03;;
79454;SDS011;68900;52.134;5.420;2023-11-19T02:13:45;20.65;;;2.97;;
79454;SDS011;68900;52.134;5.420;2023-11-19T02:16:12;19.90;;;2.92;;
79454;SDS011;68900;52.134;5.420;2023-11-19T02:18:38;24.08;;;3.38;;
79454;SDS011;68900;52.134;5.420;2023-11-19T02:21:05;21.80;;;2.47;;
79454;SDS011;68900;52.134;5.420;2023-11-19T02:23:31;20.40;;;3.50;;
79454;SDS011;68900;52.134;5.420;2023-11-19T02:26:02;22.42;;;2.97;;
79454;SDS011;68900;52.134;5.420;2023-11-19T02:28:44;20.95;;;2.83;;
79454;SDS011;68900;52.134;5.420;2023-11-19T02:38:01;22.63;;;2.97;;
79454;SDS011;68900;52.134;5.420;2023-11-19T02:40:32;20.77;;;3.03;;
79454;SDS011;68900;52.134;5.420;2023-11-19T02:42:59;22.65;;;2.55;;
79454;SDS011;68900;52.134;5.420;2023-11-19T02:45:26;23.08;;;2.78;;
79454;SDS011;68900;52.134;5.420;2023-11-19T02:47:52;26.75;;;3.13;;
79454;SDS011;68900;52.134;5.420;2023-11-19T02:50:21;19.00;;;3.00;;
79454;SDS011;68900;52.134;5.420;2023-11-19T02:52:52;30.98;;;3.47;;
79454;SDS011;68900;52.134;5.420;2023-11-19T02:55:20;30.17;;;3.35;;
79454;SDS011;68900;52.134;5.420;2023-11-19T02:57:47;31.30;;;3.83;;
79454;SDS011;68900;52.134;5.420;2023-11-19T03:00:20;23.23;;;3.05;;
79454;SDS011;68900;52.134;5.420;2023-11-19T03:03:02;26.48;;;3.60;;
79454;SDS011;68900;52.134;5.420;2023-11-19T03:05:46;22.23;;;2.88;;
79454;SDS011;68900;52.134;5.420;2023-11-19T03:08:14;24.35;;;3.08;;
79454;SDS011;68900;52.134;5.420;2023-11-19T03:10:49;29.98;;;3.72;;
79454;SDS011;68900;52.134;5.420;2023-11-19T03:13:15;28.02;;;3.15;;
79454;SDS011;68900;52.134;5.420;2023-11-19T03:15:43;27.63;;;3.38;;
79454;SDS011;68900;52.134;5.420;2023-11-19T03:18:10;26.58;;;3.67;;
79454;SDS011;68900;52.134;5.420;2023-11-19T03:20:37;20.80;;;2.75;;
79454;SDS011;68900;52.134;5.420;2023-11-19T03:23:03;29.52;;;3.00;;
79454;SDS011;68900;52.134;5.420;2023-11-19T03:25:30;22.60;;;3.30;;
79454;SDS011;68900;52.134;5.420;2023-11-19T03:28:00;23.88;;;3.50;;
79454;SDS011;68900;52.134;5.420;2023-11-19T03:30:28;23.05;;;2.92;;
79454;SDS011;68900;52.134;5.420;2023-11-19T03:32:59;27.02;;;3.30;;
79454;SDS011;68900;52.134;5.420;2023-11-19T03:35:27;25.23;;;3.55;;
79454;SDS011;68900;52.134;5.420;2023-11-19T03:37:54;28.23;;;4.05;;
79454;SDS011;68900;52.134;5.420;2023-11-19T03:40:21;27.65;;;3.00;;
79454;SDS011;68900;52.134;5.420;2023-11-19T03:42:47;23.30;;;3.50;;
79454;SDS011;68900;52.134;5.420;2023-11-19T03:45:14;23.50;;;3.30;;
79454;SDS011;68900;52.134;5.420;2023-11-19T03:47:42;27.75;;;3.83;;
79454;SDS011;68900;52.134;5.420;2023-11-19T03:50:09;31.08;;;4.43;;
79454;SDS011;68900;52.134;5.420;2023-11-19T03:52:35;26.70;;;3.33;;
79454;SDS011;68900;52.134;5.420;2023-11-19T03:55:05;25.80;;;3.28;;
79454;SDS011;68900;52.134;5.420;2023-11-19T03:57:32;24.02;;;3.08;;
79454;SDS011;68900;52.134;5.420;2023-11-19T03:59:58;26.05;;;3.65;;
79454;SDS011;68900;52.134;5.420;2023-11-19T04:02:25;22.38;;;3.08;;
79454;SDS011;68900;52.134;5.420;2023-11-19T04:04:54;23.70;;;3.17;;
79454;SDS011;68900;52.134;5.420;2023-11-19T04:07:21;31.25;;;3.70;;
79454;SDS011;68900;52.134;5.420;2023-11-19T04:09:48;27.55;;;3.72;;
79454;SDS011;68900;52.134;5.420;2023-11-19T04:12:15;30.80;;;4.00;;
79454;SDS011;68900;52.134;5.420;2023-11-19T04:14:41;33.25;;;3.63;;
79454;SDS011;68900;52.134;5.420;2023-11-19T04:17:08;27.52;;;3.35;;
79454;SDS011;68900;52.134;5.420;2023-11-19T04:19:35;25.10;;;3.20;;
79454;SDS011;68900;52.134;5.420;2023-11-19T04:22:01;25.65;;;3.88;;
79454;SDS011;68900;52.134;5.420;2023-11-19T04:24:28;28.02;;;3.70;;
79454;SDS011;68900;52.134;5.420;2023-11-19T04:26:54;36.20;;;3.47;;
79454;SDS011;68900;52.134;5.420;2023-11-19T04:29:21;34.63;;;4.05;;
79454;SDS011;68900;52.134;5.420;2023-11-19T04:31:47;23.73;;;2.90;;
79454;SDS011;68900;52.134;5.420;2023-11-19T04:34:14;34.65;;;3.67;;
79454;SDS011;68900;52.134;5.420;2023-11-19T04:36:41;26.92;;;3.40;;
79454;SDS011;68900;52.134;5.420;2023-11-19T04:39:07;24.55;;;3.53;;
79454;SDS011;68900;52.134;5.420;2023-11-19T04:41:51;29.30;;;3.78;;
79454;SDS011;68900;52.134;5.420;2023-11-19T04:44:20;28.08;;;3.92;;
79454;SDS011;68900;52.134;5.420;2023-11-19T04:46:47;22.08;;;3.35;;
79454;SDS011;68900;52.134;5.420;2023-11-19T04:49:14;36.40;;;3.72;;
79454;SDS011;68900;52.134;5.420;2023-11-19T04:51:41;22.20;;;3.20;;
79454;SDS011;68900;52.134;5.420;2023-11-19T04:54:11;32.05;;;3.55;;
79454;SDS011;68900;52.134;5.420;2023-11-19T04:56:37;26.48;;;3.33;;
79454;SDS011;68900;52.134;5.420;2023-11-19T04:59:04;24.02;;;3.40;;
79454;SDS011;68900;52.134;5.420;2023-11-19T05:01:32;29.83;;;3.83;;
79454;SDS011;68900;52.134;5.420;2023-11-19T05:03:59;29.13;;;3.38;;
79454;SDS011;68900;52.134;5.420;2023-11-19T05:06:27;37.72;;;3.38;;
79454;SDS011;68900;52.134;5.420;2023-11-19T05:08:55;25.80;;;3.38;;
79454;SDS011;68900;52.134;5.420;2023-11-19T05:11:22;25.35;;;3.20;;
79454;SDS011;68900;52.134;5.420;2023-11-19T05:13:49;24.25;;;3.50;;
79454;SDS011;68900;52.134;5.420;2023-11-19T05:16:19;21.98;;;3.30;;
79454;SDS011;68900;52.134;5.420;2023-11-19T05:18:47;18.30;;;2.78;;
79454;SDS011;68900;52.134;5.420;2023-11-19T05:21:13;33.78;;;4.10;;
79454;SDS011;68900;52.134;5.420;2023-11-19T05:23:40;35.17;;;3.55;;
79454;SDS011;68900;52.134;5.420;2023-11-19T05:26:08;27.35;;;3.85;;
79454;SDS011;68900;52.134;5.420;2023-11-19T05:28:35;28.00;;;3.75;;
79454;SDS011;68900;52.134;5.420;2023-11-19T05:31:01;25.25;;;2.72;;
79454;SDS011;68900;52.134;5.420;2023-11-19T05:33:28;21.63;;;2.90;;
79454;SDS011;68900;52.134;5.420;2023-11-19T05:35:54;34.50;;;4.10;;
79454;SDS011;68900;52.134;5.420;2023-11-19T05:38:21;27.13;;;3.70;;
79454;SDS011;68900;52.134;5.420;2023-11-19T05:40:47;25.77;;;3.38;;
79454;SDS011;68900;52.134;5.420;2023-11-19T05:43:15;29.75;;;3.42;;
79454;SDS011;68900;52.134;5.420;2023-11-19T05:45:42;26.13;;;3.05;;
79454;SDS011;68900;52.134;5.420;2023-11-19T05:48:09;31.98;;;3.80;;
79454;SDS011;68900;52.134;5.420;2023-11-19T05:50:36;26.17;;;3.13;;
79454;SDS011;68900;52.134;5.420;2023-11-19T05:53:03;24.50;;;3.05;;
79454;SDS011;68900;52.134;5.420;2023-11-19T05:55:35;27.23;;;3.90;;
79454;SDS011;68900;52.134;5.420;2023-11-19T05:58:12;19.90;;;3.33;;
79454;SDS011;68900;52.134;5.420;2023-11-19T06:00:38;33.95;;;3.22;;
79454;SDS011;68900;52.134;5.420;2023-11-19T06:03:08;23.08;;;3.00;;
79454;SDS011;68900;52.134;5.420;2023-11-19T06:05:34;26.83;;;3.53;;
79454;SDS011;68900;52.134;5.420;2023-11-19T06:08:01;31.52;;;3.80;;
79454;SDS011;68900;52.134;5.420;2023-11-19T06:10:27;27.75;;;3.53;;
79454;SDS011;68900;52.134;5.420;2023-11-19T06:12:58;21.48;;;2.75;;
79454;SDS011;68900;52.134;5.420;2023-11-19T06:15:26;25.63;;;3.08;;
79454;SDS011;68900;52.134;5.420;2023-11-19T06:17:53;25.38;;;3.25;;
79454;SDS011;68900;52.134;5.420;2023-11-19T06:20:21;26.02;;;3.90;;
79454;SDS011;68900;52.134;5.420;2023-11-19T06:22:47;26.48;;;3.17;;
79454;SDS011;68900;52.134;5.420;2023-11-19T06:25:13;23.73;;;3.00;;
79454;SDS011;68900;52.134;5.420;2023-11-19T06:27:41;21.92;;;2.97;;
79454;SDS011;68900;52.134;5.420;2023-11-19T06:30:08;27.98;;;3.53;;
79454;SDS011;68900;52.134;5.420;2023-11-19T06:32:36;25.33;;;2.95;;
79454;SDS011;68900;52.134;5.420;2023-11-19T06:35:02;32.42;;;4.05;;
79454;SDS011;68900;52.134;5.420;2023-11-19T06:37:31;24.70;;;3.35;;
79454;SDS011;68900;52.134;5.420;2023-11-19T06:39:57;24.35;;;3.20;;
79454;SDS011;68900;52.134;5.420;2023-11-19T06:42:23;23.40;;;3.30;;
79454;SDS011;68900;52.134;5.420;2023-11-19T06:44:50;29.60;;;3.75;;
79454;SDS011;68900;52.134;5.420;2023-11-19T06:47:17;22.75;;;3.15;;
79454;SDS011;68900;52.134;5.420;2023-11-19T06:49:44;28.75;;;3.13;;
79454;SDS011;68900;52.134;5.420;2023-11-19T06:52:11;28.90;;;3.95;;
79454;SDS011;68900;52.134;5.420;2023-11-19T06:54:40;24.30;;;2.85;;
79454;SDS011;68900;52.134;5.420;2023-11-19T06:57:07;26.15;;;3.42;;
79454;SDS011;68900;52.134;5.420;2023-11-19T06:59:35;20.88;;;3.10;;
79454;SDS011;68900;52.134;5.420;2023-11-19T07:02:02;27.75;;;3.20;;
79454;SDS011;68900;52.134;5.420;2023-11-19T07:04:28;24.33;;;3.58;;
79454;SDS011;68900;52.134;5.420;2023-11-19T07:06:55;25.33;;;3.28;;
79454;SDS011;68900;52.134;5.420;2023-11-19T07:09:21;30.27;;;3.42;;
79454;SDS011;68900;52.134;5.420;2023-11-19T07:11:49;27.40;;;3.78;;
79454;SDS011;68900;52.134;5.420;2023-11-19T07:14:18;27.45;;;3.90;;
79454;SDS011;68900;52.134;5.420;2023-11-19T07:16:44;26.27;;;3.25;;
79454;SDS011;68900;52.134;5.420;2023-11-19T07:19:12;29.27;;;3.30;;
79454;SDS011;68900;52.134;5.420;2023-11-19T07:21:42;28.92;;;3.30;;
79454;SDS011;68900;52.134;5.420;2023-11-19T07:24:10;29.40;;;4.88;;
79454;SDS011;68900;52.134;5.420;2023-11-19T07:26:43;23.55;;;3.17;;
79454;SDS011;68900;52.134;5.420;2023-11-19T07:29:10;32.38;;;3.58;;
79454;SDS011;68900;52.134;5.420;2023-11-19T07:31:37;25.85;;;2.92;;
79454;SDS011;68900;52.134;5.420;2023-11-19T07:34:03;30.00;;;3.42;;
79454;SDS011;68900;52.134;5.420;2023-11-19T07:36:32;25.13;;;3.17;;
79454;SDS011;68900;52.134;5.420;2023-11-19T07:38:59;27.40;;;3.28;;
79454;SDS011;68900;52.134;5.420;2023-11-19T07:41:25;23.65;;;3.97;;
79454;SDS011;68900;52.134;5.420;2023-11-19T07:43:52;29.48;;;3.88;;
79454;SDS011;68900;52.134;5.420;2023-11-19T07:46:19;21.67;;;3.17;;
79454;SDS011;68900;52.134;5.420;2023-11-19T07:48:46;28.17;;;3.70;;
79454;SDS011;68900;52.134;5.420;2023-11-19T07:51:15;23.55;;;3.80;;
79454;SDS011;68900;52.134;5.420;2023-11-19T07:53:41;27.27;;;4.03;;
79454;SDS011;68900;52.134;5.420;2023-11-19T07:56:08;30.50;;;3.30;;
79454;SDS011;68900;52.134;5.420;2023-11-19T07:58:35;22.55;;;2.88;;
79454;SDS011;68900;52.134;5.420;2023-11-19T08:01:02;29.92;;;3.13;;
79454;SDS011;68900;52.134;5.420;2023-11-19T08:03:29;30.80;;;3.65;;
79454;SDS011;68900;52.134;5.420;2023-11-19T08:05:56;24.83;;;3.42;;
79454;SDS011;68900;52.134;5.420;2023-11-19T08:08:25;26.13;;;2.85;;
79454;SDS011;68900;52.134;5.420;2023-11-19T08:10:52;24.35;;;3.83;;
79454;SDS011;68900;52.134;5.420;2023-11-19T08:13:19;26.05;;;3.28;;
79454;SDS011;68900;52.134;5.420;2023-11-19T08:15:47;25.95;;;3.50;;
79454;SDS011;68900;52.134;5.420;2023-11-19T08:18:13;30.00;;;3.63;;
79454;SDS011;68900;52.134;5.420;2023-11-19T08:20:40;34.05;;;3.83;;
79454;SDS011;68900;52.134;5.420;2023-11-19T08:23:07;24.52;;;3.83;;
79454;SDS011;68900;52.134;5.420;2023-11-19T08:25:34;31.83;;;3.88;;
79454;SDS011;68900;52.134;5.420;2023-11-19T08:28:03;26.45;;;3.25;;
79454;SDS011;68900;52.134;5.420;2023-11-19T08:30:30;26.98;;;3.38;;
79454;SDS011;68900;52.134;5.420;2023-11-19T08:32:56;26.92;;;3.60;;
79454;SDS011;68900;52.134;5.420;2023-11-19T08:35:25;22.98;;;2.97;;
79454;SDS011;68900;52.134;5.420;2023-11-19T08:37:51;28.67;;;3.97;;
79454;SDS011;68900;52.134;5.420;2023-11-19T08:40:18;26.60;;;3.58;;
79454;SDS011;68900;52.134;5.420;2023-11-19T08:42:46;22.35;;;3.60;;
79454;SDS011;68900;52.134;5.420;2023-11-19T08:45:12;24.42;;;3.40;;
79454;SDS011;68900;52.134;5.420;2023-11-19T08:47:39;22.70;;;3.42;;
79454;SDS011;68900;52.134;5.420;2023-11-19T08:50:07;25.65;;;2.72;;
79454;SDS011;68900;52.134;5.420;2023-11-19T08:52:35;23.73;;;2.45;;
79454;SDS011;68900;52.134;5.420;2023-11-19T08:55:01;24.75;;;3.17;;
79454;SDS011;68900;52.134;5.420;2023-11-19T08:57:28;23.15;;;3.00;;
79454;SDS011;68900;52.134;5.420;2023-11-19T08:59:55;24.10;;;3.10;;
79454;SDS011;68900;52.134;5.420;2023-11-19T09:02:21;21.10;;;3.00;;
79454;SDS011;68900;52.134;5.420;2023-11-19T09:04:47;22.73;;;3.22;;
79454;SDS011;68900;52.134;5.420;2023-11-19T09:07:18;26.83;;;3.55;;
79454;SDS011;68900;52.134;5.420;2023-11-19T09:09:44;23.50;;;2.78;;
79454;SDS011;68900;52.134;5.420;2023-11-19T09:12:11;24.73;;;2.90;;
79454;SDS011;68900;52.134;5.420;2023-11-19T09:14:40;19.10;;;2.75;;
79454;SDS011;68900;52.134;5.420;2023-11-19T09:17:08;25.45;;;3.53;;
79454;SDS011;68900;52.134;5.420;2023-11-19T09:19:36;26.30;;;3.92;;
79454;SDS011;68900;52.134;5.420;2023-11-19T09:22:02;28.27;;;2.97;;
79454;SDS011;68900;52.134;5.420;2023-11-19T09:24:29;26.13;;;2.80;;
79454;SDS011;68900;52.134;5.420;2023-11-19T09:26:55;28.52;;;4.10;;
79454;SDS011;68900;52.134;5.420;2023-11-19T09:29:22;41.22;;;3.70;;
79454;SDS011;68900;52.134;5.420;2023-11-19T09:31:49;21.42;;;2.97;;
79454;SDS011;68900;52.134;5.420;2023-11-19T09:34:15;24.55;;;3.45;;
79454;SDS011;68900;52.134;5.420;2023-11-19T09:36:42;27.42;;;2.95;;
79454;SDS011;68900;52.134;5.420;2023-11-19T09:39:11;26.85;;;3.83;;
79454;SDS011;68900;52.134;5.420;2023-11-19T09:41:39;19.63;;;2.78;;
79454;SDS011;68900;52.134;5.420;2023-11-19T09:44:11;20.88;;;2.97;;
79454;SDS011;68900;52.134;5.420;2023-11-19T09:46:39;31.52;;;3.53;;
79454;SDS011;68900;52.134;5.420;2023-11-19T09:49:24;28.90;;;2.92;;
79454;SDS011;68900;52.134;5.420;2023-11-19T09:51:55;27.25;;;2.95;;
79454;SDS011;68900;52.134;5.420;2023-11-19T09:54:21;20.42;;;2.40;;
79454;SDS011;68900;52.134;5.420;2023-11-19T09:56:48;23.40;;;2.65;;
79454;SDS011;68900;52.134;5.420;2023-11-19T09:59:17;29.45;;;3.13;;
79454;SDS011;68900;52.134;5.420;2023-11-19T10:01:45;23.05;;;3.25;;
79454;SDS011;68900;52.134;5.420;2023-11-19T10:04:12;29.08;;;3.83;;
79454;SDS011;68900;52.134;5.420;2023-11-19T10:06:43;23.73;;;3.83;;
79454;SDS011;68900;52.134;5.420;2023-11-19T10:09:11;20.08;;;3.00;;
79454;SDS011;68900;52.134;5.420;2023-11-19T10:11:38;23.27;;;2.90;;
79454;SDS011;68900;52.134;5.420;2023-11-19T10:14:05;30.13;;;3.17;;
79454;SDS011;68900;52.134;5.420;2023-11-19T10:16:34;19.73;;;3.10;;
79454;SDS011;68900;52.134;5.420;2023-11-19T10:19:01;26.95;;;3.03;;
79454;SDS011;68900;52.134;5.420;2023-11-19T10:21:28;25.00;;;3.92;;
79454;SDS011;68900;52.134;5.420;2023-11-19T10:23:58;23.30;;;2.78;;
79454;SDS011;68900;52.134;5.420;2023-11-19T10:26:26;20.55;;;3.03;;
79454;SDS011;68900;52.134;5.420;2023-11-19T10:28:53;21.27;;;3.10;;
79454;SDS011;68900;52.134;5.420;2023-11-19T10:31:21;25.77;;;3.45;;
79454;SDS011;68900;52.134;5.420;2023-11-19T10:33:52;24.02;;;3.17;;
79454;SDS011;68900;52.134;5.420;2023-11-19T10:36:19;19.85;;;2.30;;
79454;SDS011;68900;52.134;5.420;2023-11-19T10:38:52;26.00;;;2.92;;
79454;SDS011;68900;52.134;5.420;2023-11-19T10:41:29;24.48;;;3.70;;
79454;SDS011;68900;52.134;5.420;2023-11-19T10:43:57;32.65;;;3.55;;
79454;SDS011;68900;52.134;5.420;2023-11-19T10:46:40;22.92;;;2.63;;
79454;SDS011;68900;52.134;5.420;2023-11-19T10:49:08;19.23;;;2.95;;
79454;SDS011;68900;52.134;5.420;2023-11-19T10:51:35;25.88;;;3.45;;
79454;SDS011;68900;52.134;5.420;2023-11-19T10:54:02;24.55;;;2.97;;
79454;SDS011;68900;52.134;5.420;2023-11-19T10:56:32;22.65;;;2.60;;
79454;SDS011;68900;52.134;5.420;2023-11-19T10:59:00;24.45;;;3.05;;
79454;SDS011;68900;52.134;5.420;2023-11-19T11:01:27;25.90;;;3.13;;
79454;SDS011;68900;52.134;5.420;2023-11-19T11:04:01;21.40;;;2.78;;
79454;SDS011;68900;52.134;5.420;2023-11-19T11:06:28;24.17;;;3.00;;
79454;SDS011;68900;52.134;5.420;2023-11-19T11:08:56;26.52;;;3.45;;
79454;SDS011;68900;52.134;5.420;2023-11-19T11:11:26;20.30;;;2.55;;
79454;SDS011;68900;52.134;5.420;2023-11-19T11:13:53;23.70;;;3.78;;
79454;SDS011;68900;52.134;5.420;2023-11-19T11:16:23;24.85;;;3.22;;
79454;SDS011;68900;52.134;5.420;2023-11-19T11:18:50;24.58;;;3.35;;
79454;SDS011;68900;52.134;5.420;2023-11-19T11:21:20;22.50;;;2.85;;
79454;SDS011;68900;52.134;5.420;2023-11-19T11:26:50;23.42;;;2.70;;
79454;SDS011;68900;52.134;5.420;2023-11-19T11:29:40;21.85;;;2.45;;
79454;SDS011;68900;52.134;5.420;2023-11-19T11:32:21;21.77;;;2.88;;
79454;SDS011;68900;52.134;5.420;2023-11-19T11:38:06;22.33;;;2.75;;
79454;SDS011;68900;52.134;5.420;2023-11-19T11:40:33;24.15;;;2.42;;
79454;SDS011;68900;52.134;5.420;2023-11-19T11:43:01;23.42;;;3.17;;
79454;SDS011;68900;52.134;5.420;2023-11-19T11:45:38;22.23;;;2.78;;
79454;SDS011;68900;52.134;5.420;2023-11-19T11:50:35;24.98;;;2.90;;
79454;SDS011;68900;52.134;5.420;2023-11-19T11:53:13;25.63;;;2.80;;
79454;SDS011;68900;52.134;5.420;2023-11-19T11:58:19;26.33;;;2.78;;
79454;SDS011;68900;52.134;5.420;2023-11-19T12:00:47;26.92;;;3.28;;
79454;SDS011;68900;52.134;5.420;2023-11-19T12:03:16;22.40;;;3.03;;
79454;SDS011;68900;52.134;5.420;2023-11-19T12:05:47;17.92;;;2.92;;
79454;SDS011;68900;52.134;5.420;2023-11-19T12:08:15;17.25;;;2.20;;
79454;SDS011;68900;52.134;5.420;2023-11-19T12:10:51;21.35;;;2.70;;
79454;SDS011;68900;52.134;5.420;2023-11-19T12:13:20;23.27;;;3.00;;
79454;SDS011;68900;52.134;5.420;2023-11-19T12:18:23;19.70;;;2.67;;
79454;SDS011;68900;52.134;5.420;2023-11-19T12:20:50;23.98;;;3.38;;
79454;SDS011;68900;52.134;5.420;2023-11-19T12:23:17;18.45;;;2.50;;
79454;SDS011;68900;52.134;5.420;2023-11-19T12:25:43;23.40;;;3.30;;
79454;SDS011;68900;52.134;5.420;2023-11-19T12:28:12;19.48;;;2.55;;
79454;SDS011;68900;52.134;5.420;2023-11-19T12:30:39;21.40;;;2.63;;
79454;SDS011;68900;52.134;5.420;2023-11-19T12:33:09;20.60;;;2.55;;
79454;SDS011;68900;52.134;5.420;2023-11-19T12:35:39;16.08;;;2.63;;
79454;SDS011;68900;52.134;5.420;2023-11-19T12:38:19;19.15;;;2.13;;
79454;SDS011;68900;52.134;5.420;2023-11-19T12:41:04;15.98;;;2.38;;
79454;SDS011;68900;52.134;5.420;2023-11-19T12:43:31;20.42;;;2.17;;
79454;SDS011;68900;52.134;5.420;2023-11-19T12:45:57;19.52;;;2.70;;
79454;SDS011;68900;52.134;5.420;2023-11-19T12:48:24;16.92;;;1.92;;
79454;SDS011;68900;52.134;5.420;2023-11-19T12:50:51;16.42;;;2.83;;
79454;SDS011;68900;52.134;5.420;2023-11-19T12:53:24;16.20;;;2.30;;
79454;SDS011;68900;52.134;5.420;2023-11-19T12:55:52;21.77;;;2.70;;
79454;SDS011;68900;52.134;5.420;2023-11-19T13:00:59;17.83;;;2.40;;
79454;SDS011;68900;52.134;5.420;2023-11-19T13:03:39;17.83;;;2.55;;
79454;SDS011;68900;52.134;5.420;2023-11-19T13:06:09;23.00;;;2.67;;
79454;SDS011;68900;52.134;5.420;2023-11-19T13:08:41;19.05;;;2.75;;
79454;SDS011;68900;52.134;5.420;2023-11-19T13:11:13;20.58;;;2.20;;
79454;SDS011;68900;52.134;5.420;2023-11-19T13:13:55;21.52;;;3.03;;
79454;SDS011;68900;52.134;5.420;2023-11-19T13:16:24;21.27;;;3.10;;
79454;SDS011;68900;52.134;5.420;2023-11-19T13:18:55;19.55;;;2.65;;
79454;SDS011;68900;52.134;5.420;2023-11-19T13:21:21;18.73;;;2.88;;
79454;SDS011;68900;52.134;5.420;2023-11-19T13:23:48;23.90;;;2.67;;
79454;SDS011;68900;52.134;5.420;2023-11-19T13:26:14;22.83;;;3.25;;
79454;SDS011;68900;52.134;5.420;2023-11-19T13:28:41;16.30;;;2.63;;
79454;SDS011;68900;52.134;5.420;2023-11-19T13:31:08;21.75;;;2.83;;
79454;SDS011;68900;52.134;5.420;2023-11-19T13:33:34;18.60;;;3.30;;
79454;SDS011;68900;52.134;5.420;2023-11-19T13:36:04;24.15;;;3.80;;
79454;SDS011;68900;52.134;5.420;2023-11-19T13:38:34;18.77;;;3.10;;
79454;SDS011;68900;52.134;5.420;2023-11-19T13:41:05;16.98;;;2.75;;
79454;SDS011;68900;52.134;5.420;2023-11-19T13:43:31;21.83;;;2.53;;
79454;SDS011;68900;52.134;5.420;2023-11-19T13:45:58;17.58;;;2.30;;
79454;SDS011;68900;52.134;5.420;2023-11-19T13:48:26;22.35;;;2.78;;
79454;SDS011;68900;52.134;5.420;2023-11-19T13:50:55;16.77;;;2.42;;
79454;SDS011;68900;52.134;5.420;2023-11-19T13:53:22;24.25;;;3.17;;
79454;SDS011;68900;52.134;5.420;2023-11-19T13:55:51;23.17;;;3.60;;
79454;SDS011;68900;52.134;5.420;2023-11-19T13:58:19;22.30;;;2.92;;
79454;SDS011;68900;52.134;5.420;2023-11-19T14:00:45;22.60;;;2.78;;
79454;SDS011;68900;52.134;5.420;2023-11-19T14:03:12;16.67;;;2.28;;
79454;SDS011;68900;52.134;5.420;2023-11-19T14:05:39;16.83;;;2.40;;
79454;SDS011;68900;52.134;5.420;2023-11-19T14:08:07;23.02;;;3.47;;
79454;SDS011;68900;52.134;5.420;2023-11-19T14:10:51;14.25;;;2.25;;
79454;SDS011;68900;52.134;5.420;2023-11-19T14:13:18;19.70;;;2.70;;
79454;SDS011;68900;52.134;5.420;2023-11-19T14:15:46;15.93;;;2.38;;
79454;SDS011;68900;52.134;5.420;2023-11-19T14:18:15;18.20;;;2.83;;
79454;SDS011;68900;52.134;5.420;2023-11-19T14:20:45;14.77;;;2.50;;
79454;SDS011;68900;52.134;5.420;2023-11-19T14:23:11;15.60;;;2.47;;
79454;SDS011;68900;52.134;5.420;2023-11-19T14:25:38;21.85;;;3.10;;
79454;SDS011;68900;52.134;5.420;2023-11-19T14:28:20;18.45;;;2.38;;
79454;SDS011;68900;52.134;5.420;2023-11-19T14:30:46;16.88;;;2.38;;
79454;SDS011;68900;52.134;5.420;2023-11-19T14:33:19;17.85;;;2.20;;
79454;SDS011;68900;52.134;5.420;2023-11-19T14:35:46;13.57;;;2.28;;
79454;SDS011;68900;52.134;5.420;2023-11-19T14:38:12;15.02;;;2.58;;
79454;SDS011;68900;52.134;5.420;2023-11-19T14:40:39;22.13;;;2.67;;
79454;SDS011;68900;52.134;5.420;2023-11-19T14:43:08;19.63;;;2.40;;
79454;SDS011;68900;52.134;5.420;2023-11-19T14:45:38;19.15;;;2.38;;
79454;SDS011;68900;52.134;5.420;2023-11-19T14:48:14;16.15;;;2.30;;
79454;SDS011;68900;52.134;5.420;2023-11-19T14:50:44;15.88;;;2.38;;
79454;SDS011;68900;52.134;5.420;2023-11-19T14:53:11;20.55;;;2.50;;
79454;SDS011;68900;52.134;5.420;2023-11-19T14:55:37;14.68;;;2.45;;
79454;SDS011;68900;52.134;5.420;2023-11-19T14:58:06;18.90;;;2.83;;
79454;SDS011;68900;52.134;5.420;2023-11-19T15:00:37;23.38;;;2.80;;
79454;SDS011;68900;52.134;5.420;2023-11-19T15:03:03;22.40;;;3.20;;
79454;SDS011;68900;52.134;5.420;2023-11-19T15:05:30;25.40;;;2.50;;